createdAt,value
2023-04-12T00:00:48.086Z,10.14
2023-04-12T00:01:48.134Z,10.11
2023-04-12T00:02:48.110Z,10.10
2023-04-12T00:03:48.179Z,10.10
2023-04-12T00:04:48.088Z,10.09
2023-04-12T00:05:48.033Z,10.10
2023-04-12T00:06:48.011Z,10.10
2023-04-12T00:07:47.987Z,10.09
2023-04-12T00:08:47.981Z,10.09
2023-04-12T00:09:47.964Z,10.06
2023-04-12T00:10:47.934Z,10.04
2023-04-12T00:11:47.992Z,10.04
2023-04-12T00:12:47.906Z,10.01
2023-04-12T00:13:47.924Z,10.01
2023-04-12T00:14:47.904Z,9.98
2023-04-12T00:15:47.897Z,9.96
2023-04-12T00:16:47.896Z,9.98
2023-04-12T00:17:47.981Z,9.95
2023-04-12T00:18:47.826Z,9.96
2023-04-12T00:19:47.855Z,9.96
2023-04-12T00:20:47.800Z,9.98
2023-04-12T00:21:47.888Z,9.96
2023-04-12T00:22:47.810Z,9.96
2023-04-12T00:23:47.793Z,9.95
2023-04-12T00:24:47.757Z,9.95
2023-04-12T00:25:47.783Z,9.95
2023-04-12T00:26:47.803Z,9.95
2023-04-12T00:27:47.766Z,9.96
2023-04-12T00:28:47.703Z,9.95
2023-04-12T00:29:47.702Z,9.93
2023-04-12T00:30:47.665Z,9.92
2023-04-12T00:31:47.799Z,9.92
2023-04-12T00:32:47.684Z,9.91
2023-04-12T00:33:47.666Z,9.91
2023-04-12T00:34:47.664Z,9.91
2023-04-12T00:35:47.668Z,9.91
2023-04-12T00:36:47.662Z,9.92
2023-04-12T00:37:47.638Z,9.93
2023-04-12T00:38:47.582Z,9.91
2023-04-12T00:39:47.577Z,9.88
2023-04-12T00:40:47.559Z,9.86
2023-04-12T00:41:47.552Z,9.85
2023-04-12T00:42:47.520Z,9.85
2023-04-12T00:43:47.519Z,9.85
2023-04-12T00:44:47.484Z,9.85
2023-04-12T00:45:47.505Z,9.88
2023-04-12T00:46:47.566Z,9.86
2023-04-12T00:47:47.661Z,9.86
2023-04-12T00:48:47.467Z,9.86
2023-04-12T00:49:47.466Z,9.83
2023-04-12T00:50:47.410Z,9.83
2023-04-12T00:51:47.440Z,9.78
2023-04-12T00:52:47.426Z,9.78
2023-04-12T00:53:47.387Z,9.80
2023-04-12T00:54:47.396Z,9.78
2023-04-12T00:55:47.346Z,9.78
2023-04-12T00:56:47.373Z,9.78
2023-04-12T00:57:47.359Z,9.81
2023-04-12T00:58:47.351Z,9.77
2023-04-12T00:59:47.331Z,9.75
2023-04-12T01:00:47.355Z,9.75
2023-04-12T01:01:47.343Z,9.73
2023-04-12T01:02:47.978Z,9.73
2023-04-12T01:03:47.368Z,9.75
2023-04-12T01:04:47.249Z,9.74
2023-04-12T01:05:47.222Z,9.71
2023-04-12T01:06:47.227Z,9.68
2023-04-12T01:07:47.241Z,9.67
2023-04-12T01:08:47.194Z,9.63
2023-04-12T01:09:47.198Z,9.62
2023-04-12T01:10:47.177Z,9.62
2023-04-12T01:11:47.154Z,9.60
2023-04-12T01:12:47.147Z,9.62
2023-04-12T01:13:47.154Z,9.59
2023-04-12T01:14:47.127Z,9.60
2023-04-12T01:15:54.677Z,9.59
2023-04-12T01:16:47.121Z,9.58
2023-04-12T01:17:47.147Z,9.59
2023-04-12T01:18:47.048Z,9.58
2023-04-12T01:19:47.053Z,9.53
2023-04-12T01:20:47.011Z,9.48
2023-04-12T01:21:47.038Z,9.49
2023-04-12T01:22:46.982Z,9.48
2023-04-12T01:23:47.008Z,9.45
2023-04-12T01:24:46.988Z,9.44
2023-04-12T01:25:47.019Z,9.41
2023-04-12T01:26:47.026Z,9.41
2023-04-12T01:27:46.989Z,9.41
2023-04-12T01:28:46.937Z,9.41
2023-04-12T01:29:46.942Z,9.41
2023-04-12T01:30:46.889Z,9.40
2023-04-12T01:31:46.977Z,9.41
2023-04-12T01:32:46.908Z,9.40
2023-04-12T01:33:46.894Z,9.41
2023-04-12T01:34:46.836Z,9.40
2023-04-12T01:35:46.906Z,9.40
2023-04-12T01:36:46.807Z,9.38
2023-04-12T01:37:46.853Z,9.37
2023-04-12T01:38:46.804Z,9.37
2023-04-12T01:39:46.805Z,9.37
2023-04-12T01:40:46.766Z,9.37
2023-04-12T01:41:46.819Z,9.35
2023-04-12T01:42:46.754Z,9.34
2023-04-12T01:43:46.726Z,9.34
2023-04-12T01:44:46.706Z,9.30
2023-04-12T01:45:46.773Z,9.27
2023-04-12T01:46:46.711Z,9.31
2023-04-12T01:47:46.722Z,9.31
2023-04-12T01:48:46.693Z,9.31
2023-04-12T01:49:46.661Z,9.31
2023-04-12T01:50:46.661Z,9.27
2023-04-12T01:51:46.679Z,9.27
2023-04-12T01:52:46.640Z,9.26
2023-04-12T01:53:46.647Z,9.26
2023-04-12T01:54:46.576Z,9.24
2023-04-12T01:55:46.566Z,9.23
2023-04-12T01:56:46.595Z,9.19
2023-04-12T01:57:46.556Z,9.16
2023-04-12T01:58:46.525Z,9.15
2023-04-12T01:59:46.568Z,9.15
2023-04-12T02:00:46.543Z,9.15
2023-04-12T02:01:46.593Z,9.19
2023-04-12T02:02:46.651Z,9.19
2023-04-12T02:03:46.605Z,9.23
2023-04-12T02:04:46.448Z,9.23
2023-04-12T02:05:46.468Z,9.23
2023-04-12T02:06:46.448Z,9.23
2023-04-12T02:07:46.432Z,9.24
2023-04-12T02:08:46.460Z,9.23
2023-04-12T02:09:46.393Z,9.24
2023-04-12T02:10:46.412Z,9.20
2023-04-12T02:11:46.407Z,9.20
2023-04-12T02:12:46.374Z,9.20
2023-04-12T02:13:46.400Z,9.22
2023-04-12T02:14:46.347Z,9.22
2023-04-12T02:15:46.350Z,9.22
2023-04-12T02:16:46.412Z,9.23
2023-04-12T02:17:46.350Z,9.24
2023-04-12T02:18:46.293Z,9.23
2023-04-12T02:19:46.322Z,9.22
2023-04-12T02:20:46.230Z,9.22
2023-04-12T02:21:46.261Z,9.22
2023-04-12T02:22:46.206Z,9.22
2023-04-12T02:23:46.265Z,9.22
2023-04-12T02:24:46.192Z,9.20
2023-04-12T02:25:46.181Z,9.17
2023-04-12T02:26:46.244Z,9.15
2023-04-12T02:27:46.186Z,9.15
2023-04-12T02:28:46.211Z,9.15
2023-04-12T02:29:46.158Z,9.13
2023-04-12T02:30:46.122Z,9.10
2023-04-12T02:31:46.144Z,9.13
2023-04-12T02:32:46.111Z,9.13
2023-04-12T02:33:46.101Z,9.13
2023-04-12T02:34:46.045Z,9.12
2023-04-12T02:35:46.077Z,9.10
2023-04-12T02:36:46.048Z,9.15
2023-04-12T02:37:46.020Z,9.12
2023-04-12T02:38:46.076Z,9.10
2023-04-12T02:39:46.037Z,9.06
2023-04-12T02:40:45.971Z,9.04
2023-04-12T02:41:45.981Z,9.04
2023-04-12T02:42:45.978Z,9.04
2023-04-12T02:43:46.001Z,9.10
2023-04-12T02:44:45.977Z,9.10
2023-04-12T02:45:45.985Z,9.12
2023-04-12T02:46:45.968Z,9.12
2023-04-12T02:47:45.974Z,9.12
2023-04-12T02:48:45.941Z,9.10
2023-04-12T02:49:45.913Z,9.04
2023-04-12T02:50:45.880Z,9.01
2023-04-12T02:51:45.847Z,9.03
2023-04-12T02:52:45.847Z,9.03
2023-04-12T02:53:45.828Z,9.00
2023-04-12T02:54:45.793Z,9.01
2023-04-12T02:55:45.801Z,8.98
2023-04-12T02:56:45.798Z,8.98
2023-04-12T02:57:45.805Z,8.97
2023-04-12T02:58:45.821Z,8.98
2023-04-12T02:59:45.785Z,8.96
2023-04-12T03:00:45.714Z,8.94
2023-04-12T03:01:45.840Z,8.96
2023-04-12T03:02:45.797Z,8.94
2023-04-12T03:03:45.734Z,8.93
2023-04-12T03:04:45.691Z,8.89
2023-04-12T03:05:45.687Z,8.88
2023-04-12T03:06:45.682Z,8.88
2023-04-12T03:07:45.650Z,8.89
2023-04-12T03:08:45.643Z,8.89
2023-04-12T03:09:45.681Z,8.89
2023-04-12T03:10:45.588Z,8.89
2023-04-12T03:11:45.568Z,8.86
2023-04-12T03:12:45.606Z,8.85
2023-04-12T03:13:45.571Z,8.86
2023-04-12T03:14:45.582Z,8.86
2023-04-12T03:15:45.547Z,8.86
2023-04-12T03:16:45.535Z,8.86
2023-04-12T03:17:45.565Z,8.86
2023-04-12T03:18:45.520Z,8.83
2023-04-12T03:19:45.521Z,8.83
2023-04-12T03:20:47.714Z,8.86
2023-04-12T03:21:45.465Z,8.86
2023-04-12T03:22:45.461Z,8.83
2023-04-12T03:23:45.407Z,8.85
2023-04-12T03:24:45.428Z,8.85
2023-04-12T03:25:45.422Z,8.83
2023-04-12T03:26:45.385Z,8.85
2023-04-12T03:27:45.388Z,8.82
2023-04-12T03:28:45.377Z,8.82
2023-04-12T03:29:45.325Z,8.82
2023-04-12T03:30:45.455Z,8.82
2023-04-12T03:31:45.306Z,8.83
2023-04-12T03:32:45.411Z,8.82
2023-04-12T03:33:45.311Z,8.80
2023-04-12T03:34:45.303Z,8.79
2023-04-12T03:35:45.421Z,8.78
2023-04-12T03:36:45.245Z,8.78
2023-04-12T03:37:45.229Z,8.73
2023-04-12T03:38:45.313Z,8.75
2023-04-12T03:39:45.197Z,8.75
2023-04-12T03:40:45.259Z,8.75
2023-04-12T03:41:45.213Z,8.76
2023-04-12T03:42:45.300Z,8.78
2023-04-12T03:43:45.172Z,8.78
2023-04-12T03:44:45.171Z,8.78
2023-04-12T03:45:45.153Z,8.76
2023-04-12T03:46:45.246Z,8.75
2023-04-12T03:47:45.096Z,8.73
2023-04-12T03:48:45.111Z,8.75
2023-04-12T03:49:51.392Z,8.73
2023-04-12T03:50:46.127Z,8.70
2023-04-12T03:51:45.077Z,8.70
2023-04-12T03:52:45.061Z,8.68
2023-04-12T03:53:45.044Z,8.65
2023-04-12T03:54:45.054Z,8.70
2023-04-12T03:55:45.030Z,8.71
2023-04-12T03:56:46.294Z,8.71
2023-04-12T03:57:44.966Z,8.68
2023-04-12T03:58:44.952Z,8.67
2023-04-12T03:59:44.944Z,8.67
2023-04-12T04:00:44.976Z,8.68
2023-04-12T04:01:44.925Z,8.70
2023-04-12T04:02:45.100Z,8.68
2023-04-12T04:03:45.959Z,8.67
2023-04-12T04:04:44.959Z,8.67
2023-04-12T04:05:44.876Z,8.68
2023-04-12T04:06:44.882Z,8.65
2023-04-12T04:07:44.860Z,8.65
2023-04-12T04:08:44.866Z,8.64
2023-04-12T04:09:44.823Z,8.64
2023-04-12T04:10:44.860Z,8.67
2023-04-12T04:11:44.793Z,8.67
2023-04-12T04:12:44.806Z,8.68
2023-04-12T04:13:44.776Z,8.68
2023-04-12T04:14:44.800Z,8.71
2023-04-12T04:15:44.743Z,8.70
2023-04-12T04:16:44.844Z,8.71
2023-04-12T04:17:44.734Z,8.71
2023-04-12T04:18:44.714Z,8.71
2023-04-12T04:19:44.699Z,8.70
2023-04-12T04:20:44.698Z,8.71
2023-04-12T04:21:44.644Z,8.73
2023-04-12T04:22:44.669Z,8.73
2023-04-12T04:23:44.640Z,8.71
2023-04-12T04:24:44.672Z,8.70
2023-04-12T04:25:44.640Z,8.68
2023-04-12T04:26:44.622Z,8.70
2023-04-12T04:27:44.567Z,8.68
2023-04-12T04:28:44.645Z,8.68
2023-04-12T04:29:44.571Z,8.65
2023-04-12T04:30:44.553Z,8.65
2023-04-12T04:31:44.668Z,8.64
2023-04-12T04:32:44.599Z,8.65
2023-04-12T04:33:44.490Z,8.63
2023-04-12T04:34:44.542Z,8.64
2023-04-12T04:35:44.513Z,8.64
2023-04-12T04:36:44.490Z,8.64
2023-04-12T04:37:44.456Z,8.64
2023-04-12T04:38:44.460Z,8.64
2023-04-12T04:39:44.450Z,8.63
2023-04-12T04:40:44.434Z,8.61
2023-04-12T04:41:44.396Z,8.60
2023-04-12T04:42:44.378Z,8.58
2023-04-12T04:43:44.407Z,8.60
2023-04-12T04:44:44.376Z,8.58
2023-04-12T04:45:44.399Z,8.58
2023-04-12T04:46:44.358Z,8.58
2023-04-12T04:47:44.386Z,8.63
2023-04-12T04:48:44.381Z,8.60
2023-04-12T04:49:44.315Z,8.60
2023-04-12T04:50:44.283Z,8.58
2023-04-12T04:51:44.342Z,8.57
2023-04-12T04:52:44.251Z,8.57
2023-04-12T04:53:44.250Z,8.54
2023-04-12T04:54:44.255Z,8.54
2023-04-12T04:55:44.233Z,8.57
2023-04-12T04:56:44.230Z,8.57
2023-04-12T04:57:44.194Z,8.55
2023-04-12T04:58:44.179Z,8.55
2023-04-12T04:59:44.176Z,8.58
2023-04-12T05:00:44.153Z,8.60
2023-04-12T05:01:44.446Z,8.61
2023-04-12T05:02:44.279Z,8.64
2023-04-12T05:03:44.146Z,8.60
2023-04-12T05:04:44.132Z,8.60
2023-04-12T05:05:44.063Z,8.60
2023-04-12T05:06:44.066Z,8.58
2023-04-12T05:07:44.047Z,8.58
2023-04-12T05:08:44.078Z,8.58
2023-04-12T05:09:44.070Z,8.58
2023-04-12T05:10:44.043Z,8.55
2023-04-12T05:11:44.029Z,8.55
2023-04-12T05:12:44.016Z,8.54
2023-04-12T05:13:43.998Z,8.52
2023-04-12T05:14:48.120Z,8.50
2023-04-12T05:15:44.967Z,8.49
2023-04-12T05:16:44.027Z,8.49
2023-04-12T05:17:43.925Z,8.49
2023-04-12T05:18:43.908Z,8.49
2023-04-12T05:19:43.936Z,8.47
2023-04-12T05:20:43.880Z,8.47
2023-04-12T05:21:43.910Z,8.47
2023-04-12T05:22:43.899Z,8.49
2023-04-12T05:23:43.822Z,8.46
2023-04-12T05:24:43.874Z,8.45
2023-04-12T05:25:43.834Z,8.46
2023-04-12T05:26:43.864Z,8.46
2023-04-12T05:27:43.813Z,8.47
2023-04-12T05:28:43.821Z,8.49
2023-04-12T05:29:43.754Z,8.49
2023-04-12T05:30:43.796Z,8.49
2023-04-12T05:31:43.753Z,8.47
2023-04-12T05:32:43.804Z,8.47
2023-04-12T05:33:43.724Z,8.46
2023-04-12T05:34:43.734Z,8.47
2023-04-12T05:35:43.767Z,8.47
2023-04-12T05:36:43.670Z,8.47
2023-04-12T05:37:43.679Z,8.47
2023-04-12T05:38:43.672Z,8.47
2023-04-12T05:39:43.648Z,8.46
2023-04-12T05:40:43.642Z,8.46
2023-04-12T05:41:43.614Z,8.49
2023-04-12T05:42:43.626Z,8.49
2023-04-12T05:43:43.566Z,8.49
2023-04-12T05:44:43.576Z,8.49
2023-04-12T05:45:43.708Z,8.49
2023-04-12T05:46:43.782Z,8.50
2023-04-12T05:47:43.588Z,8.49
2023-04-12T05:48:43.516Z,8.50
2023-04-12T05:49:43.548Z,8.52
2023-04-12T05:50:43.528Z,8.50
2023-04-12T05:51:43.520Z,8.50
2023-04-12T05:52:43.561Z,8.52
2023-04-12T05:53:43.485Z,8.50
2023-04-12T05:54:43.449Z,8.50
2023-04-12T05:55:43.432Z,8.49
2023-04-12T05:56:43.458Z,8.50
2023-04-12T05:57:43.472Z,8.50
2023-04-12T05:58:43.428Z,8.49
2023-04-12T05:59:43.387Z,8.50
2023-04-12T06:00:43.385Z,8.50
2023-04-12T06:01:43.398Z,8.54
2023-04-12T06:02:43.548Z,8.54
2023-04-12T06:03:43.514Z,8.54
2023-04-12T06:04:50.711Z,8.54
2023-04-12T06:05:44.342Z,8.54
2023-04-12T06:06:43.325Z,8.55
2023-04-12T06:07:43.303Z,8.57
2023-04-12T06:08:43.268Z,8.54
2023-04-12T06:09:43.280Z,8.52
2023-04-12T06:10:43.265Z,8.54
2023-04-12T06:11:43.211Z,8.54
2023-04-12T06:12:43.213Z,8.55
2023-04-12T06:13:43.224Z,8.55
2023-04-12T06:14:43.220Z,8.55
2023-04-12T06:15:43.175Z,8.55
2023-04-12T06:16:43.199Z,8.55
2023-04-12T06:17:43.148Z,8.57
2023-04-12T06:18:43.130Z,8.55
2023-04-12T06:19:43.156Z,8.57
2023-04-12T06:20:43.164Z,8.57
2023-04-12T06:21:43.090Z,8.58
2023-04-12T06:22:43.094Z,8.58
2023-04-12T06:23:43.060Z,8.60
2023-04-12T06:24:43.078Z,8.60
2023-04-12T06:25:43.027Z,8.58
2023-04-12T06:26:43.079Z,8.58
2023-04-12T06:27:43.005Z,8.60
2023-04-12T06:28:43.022Z,8.58
2023-04-12T06:29:43.025Z,8.60
2023-04-12T06:30:43.008Z,8.63
2023-04-12T06:31:42.990Z,8.61
2023-04-12T06:32:43.008Z,8.63
2023-04-12T06:33:42.917Z,8.64
2023-04-12T06:34:42.937Z,8.65
2023-04-12T06:35:42.907Z,8.64
2023-04-12T06:36:42.938Z,8.63
2023-04-12T06:37:42.871Z,8.65
2023-04-12T06:38:42.863Z,8.65
2023-04-12T06:39:42.885Z,8.64
2023-04-12T06:40:42.833Z,8.67
2023-04-12T06:41:42.820Z,8.67
2023-04-12T06:42:42.873Z,8.71
2023-04-12T06:43:42.772Z,8.73
2023-04-12T06:44:42.810Z,8.73
2023-04-12T06:45:42.810Z,8.73
2023-04-12T06:46:42.879Z,8.73
2023-04-12T06:47:42.840Z,8.76
2023-04-12T06:48:42.730Z,8.73
2023-04-12T06:49:42.882Z,8.75
2023-04-12T06:50:42.697Z,8.75
2023-04-12T06:51:42.702Z,8.75
2023-04-12T06:52:42.716Z,8.76
2023-04-12T06:53:42.693Z,8.79
2023-04-12T06:54:42.639Z,8.79
2023-04-12T06:55:42.671Z,8.79
2023-04-12T06:56:42.656Z,8.80
2023-04-12T06:57:42.609Z,8.83
2023-04-12T06:58:42.622Z,8.85
2023-04-12T06:59:42.572Z,8.83
2023-04-12T07:00:42.647Z,8.86
2023-04-12T07:01:43.497Z,8.89
2023-04-12T07:02:42.790Z,8.91
2023-04-12T07:03:42.638Z,8.91
2023-04-12T07:04:42.541Z,8.89
2023-04-12T07:05:42.482Z,8.86
2023-04-12T07:06:42.511Z,8.88
2023-04-12T07:07:42.494Z,8.89
2023-04-12T07:08:42.486Z,8.91
2023-04-12T07:09:42.431Z,8.94
2023-04-12T07:10:42.484Z,8.94
2023-04-12T07:11:42.428Z,8.94
2023-04-12T07:12:42.448Z,8.96
2023-04-12T07:13:42.426Z,8.97
2023-04-12T07:14:44.616Z,8.97
2023-04-12T07:15:42.425Z,8.98
2023-04-12T07:16:42.492Z,9.00
2023-04-12T07:17:42.484Z,9.04
2023-04-12T07:18:42.362Z,9.01
2023-04-12T07:19:42.408Z,9.01
2023-04-12T07:20:42.317Z,9.03
2023-04-12T07:21:42.331Z,9.01
2023-04-12T07:22:42.380Z,9.03
2023-04-12T07:23:42.290Z,9.04
2023-04-12T07:24:42.243Z,9.04
2023-04-12T07:25:42.340Z,9.04
2023-04-12T07:26:43.297Z,9.04
2023-04-12T07:27:42.228Z,9.03
2023-04-12T07:28:42.249Z,9.04
2023-04-12T07:29:42.219Z,9.04
2023-04-12T07:30:42.200Z,9.03
2023-04-12T07:31:42.248Z,9.03
2023-04-12T07:32:42.240Z,9.06
2023-04-12T07:33:43.349Z,9.04
2023-04-12T07:34:42.204Z,9.10
2023-04-12T07:35:42.121Z,9.13
2023-04-12T07:36:42.100Z,9.12
2023-04-12T07:37:42.190Z,9.15
2023-04-12T07:38:42.082Z,9.17
2023-04-12T07:39:42.180Z,9.16
2023-04-12T07:40:42.084Z,9.20
2023-04-12T07:41:42.077Z,9.23
2023-04-12T07:42:42.054Z,9.24
2023-04-12T07:43:42.063Z,9.24
2023-04-12T07:44:42.013Z,9.27
2023-04-12T07:45:42.052Z,9.31
2023-04-12T07:46:42.040Z,9.30
2023-04-12T07:47:42.043Z,9.31
2023-04-12T07:48:41.923Z,9.34
2023-04-12T07:49:41.966Z,9.32
2023-04-12T07:50:41.904Z,9.32
2023-04-12T07:51:41.935Z,9.32
2023-04-12T07:52:41.913Z,9.32
2023-04-12T07:53:41.869Z,9.31
2023-04-12T07:54:41.851Z,9.32
2023-04-12T07:55:41.853Z,9.31
2023-04-12T07:56:41.818Z,9.31
2023-04-12T07:57:41.874Z,9.30
2023-04-12T07:58:41.823Z,9.30
2023-04-12T07:59:41.817Z,9.32
2023-04-12T08:00:41.802Z,9.32
2023-04-12T08:01:41.816Z,9.30
2023-04-12T08:02:41.945Z,9.30
2023-04-12T08:03:41.830Z,9.32
2023-04-12T08:04:41.758Z,9.32
2023-04-12T08:05:41.750Z,9.35
2023-04-12T08:06:41.692Z,9.35
2023-04-12T08:07:41.726Z,9.37
2023-04-12T08:08:41.715Z,9.37
2023-04-12T08:09:41.663Z,9.35
2023-04-12T08:10:41.651Z,9.37
2023-04-12T08:11:41.653Z,9.38
2023-04-12T08:12:41.606Z,9.40
2023-04-12T08:13:41.660Z,9.41
2023-04-12T08:14:41.582Z,9.44
2023-04-12T08:15:41.626Z,9.45
2023-04-12T08:16:41.579Z,9.49
2023-04-12T08:17:41.582Z,9.49
2023-04-12T08:18:41.636Z,9.50
2023-04-12T08:19:41.599Z,9.53
2023-04-12T08:20:41.538Z,9.58
2023-04-12T08:21:41.500Z,9.58
2023-04-12T08:22:41.482Z,9.55
2023-04-12T08:23:41.480Z,9.59
2023-04-12T08:24:41.532Z,9.63
2023-04-12T08:25:41.471Z,9.67
2023-04-12T08:26:41.453Z,9.68
2023-04-12T08:27:41.465Z,9.71
2023-04-12T08:28:41.428Z,9.73
2023-04-12T08:29:41.398Z,9.74
2023-04-12T08:30:41.402Z,9.77
2023-04-12T08:31:41.497Z,9.80
2023-04-12T08:32:41.380Z,9.86
2023-04-12T08:33:41.387Z,9.88
2023-04-12T08:34:42.042Z,9.96
2023-04-12T08:35:41.391Z,10.04
2023-04-12T08:36:41.325Z,10.09
2023-04-12T08:37:41.337Z,10.14
2023-04-12T08:38:45.818Z,10.10
2023-04-12T08:39:42.317Z,10.10
2023-04-12T08:40:41.259Z,10.11
2023-04-12T08:41:41.243Z,10.10
2023-04-12T08:42:41.220Z,10.06
2023-04-12T08:43:41.249Z,10.06
2023-04-12T08:44:41.229Z,10.06
2023-04-12T08:45:41.224Z,10.04
2023-04-12T08:46:41.209Z,9.99
2023-04-12T08:47:41.209Z,9.95
2023-04-12T08:48:41.215Z,9.93
2023-04-12T08:49:41.168Z,9.95
2023-04-12T08:50:41.140Z,9.95
2023-04-12T08:51:41.147Z,9.96
2023-04-12T08:52:41.134Z,9.96
2023-04-12T08:53:41.145Z,9.96
2023-04-12T08:54:41.092Z,9.96
2023-04-12T08:55:41.087Z,9.98
2023-04-12T08:56:41.054Z,10.01
2023-04-12T08:57:41.037Z,10.04
2023-04-12T08:58:41.047Z,10.04
2023-04-12T08:59:41.011Z,10.09
2023-04-12T09:00:41.025Z,10.09
2023-04-12T09:01:41.146Z,10.07
2023-04-12T09:02:41.145Z,10.09
2023-04-12T09:03:41.170Z,10.16
2023-04-12T09:04:41.017Z,10.17
2023-04-12T09:05:41.034Z,10.18
2023-04-12T09:06:40.948Z,10.22
2023-04-12T09:07:40.955Z,10.25
2023-04-12T09:08:40.891Z,10.22
2023-04-12T09:09:40.929Z,10.22
2023-04-12T09:10:40.937Z,10.18
2023-04-12T09:11:40.941Z,10.17
2023-04-12T09:12:40.891Z,10.18
2023-04-12T09:13:40.840Z,10.17
2023-04-12T09:14:40.920Z,10.17
2023-04-12T09:15:40.819Z,10.17
2023-04-12T09:16:40.867Z,10.18
2023-04-12T09:17:40.828Z,10.17
2023-04-12T09:18:40.785Z,10.20
2023-04-12T09:19:40.791Z,10.22
2023-04-12T09:20:40.734Z,10.26
2023-04-12T09:21:40.742Z,10.31
2023-04-12T09:22:40.725Z,10.35
2023-04-12T09:23:40.724Z,10.42
2023-04-12T09:24:40.724Z,10.43
2023-04-12T09:25:40.715Z,10.46
2023-04-12T09:26:40.642Z,10.44
2023-04-12T09:27:40.684Z,10.46
2023-04-12T09:28:40.653Z,10.46
2023-04-12T09:29:40.616Z,10.46
2023-04-12T09:30:40.639Z,10.47
2023-04-12T09:31:40.683Z,10.51
2023-04-12T09:32:40.641Z,10.54
2023-04-12T09:33:40.602Z,10.57
2023-04-12T09:34:40.595Z,10.60
2023-04-12T09:35:40.606Z,10.57
2023-04-12T09:36:40.613Z,10.54
2023-04-12T09:37:40.565Z,10.55
2023-04-12T09:38:40.538Z,10.54
2023-04-12T09:39:40.821Z,10.55
2023-04-12T09:40:40.502Z,10.55
2023-04-12T09:41:40.482Z,10.58
2023-04-12T09:42:40.467Z,10.60
2023-04-12T09:43:40.466Z,10.62
2023-04-12T09:44:40.414Z,10.65
2023-04-12T09:45:40.456Z,10.69
2023-04-12T09:46:40.483Z,10.72
2023-04-12T09:47:40.475Z,10.76
2023-04-12T09:48:40.397Z,10.83
2023-04-12T09:49:40.414Z,10.86
2023-04-12T09:50:40.393Z,10.88
2023-04-12T09:51:40.373Z,10.90
2023-04-12T09:52:40.429Z,10.94
2023-04-12T09:53:40.325Z,11.01
2023-04-12T09:54:40.334Z,11.06
2023-04-12T09:55:40.353Z,11.11
2023-04-12T09:56:40.286Z,11.12
2023-04-12T09:57:40.261Z,11.17
2023-04-12T09:58:40.280Z,11.23
2023-04-12T09:59:40.278Z,11.26
2023-04-12T10:00:40.246Z,11.28
2023-04-12T10:01:40.561Z,11.30
2023-04-12T10:02:40.445Z,11.35
2023-04-12T10:03:40.279Z,11.38
2023-04-12T10:04:40.309Z,11.45
2023-04-12T10:05:40.320Z,11.51
2023-04-12T10:06:40.153Z,11.57
2023-04-12T10:07:40.865Z,11.59
2023-04-12T10:08:40.240Z,11.60
2023-04-12T10:09:40.164Z,11.63
2023-04-12T10:10:40.078Z,11.70
2023-04-12T10:11:40.106Z,11.78
2023-04-12T10:12:40.449Z,11.85
2023-04-12T10:13:40.076Z,11.93
2023-04-12T10:14:41.752Z,11.93
2023-04-12T10:15:40.243Z,11.94
2023-04-12T10:16:40.179Z,11.96
2023-04-12T10:17:40.131Z,11.96
2023-04-12T10:18:40.002Z,12.00
2023-04-12T10:19:40.024Z,12.01
2023-04-12T10:20:39.944Z,12.00
2023-04-12T10:21:39.998Z,11.97
2023-04-12T10:22:39.951Z,11.96
2023-04-12T10:23:39.964Z,11.94
2023-04-12T10:24:39.966Z,11.88
2023-04-12T10:25:39.880Z,11.87
2023-04-12T10:26:39.866Z,11.82
2023-04-12T10:27:39.876Z,11.79
2023-04-12T10:28:39.885Z,11.77
2023-04-12T10:29:39.832Z,11.69
2023-04-12T10:30:39.815Z,11.64
2023-04-12T10:31:39.902Z,11.59
2023-04-12T10:32:39.842Z,11.57
2023-04-12T10:33:39.814Z,11.56
2023-04-12T10:34:39.793Z,11.56
2023-04-12T10:35:39.805Z,11.54
2023-04-12T10:36:39.766Z,11.53
2023-04-12T10:37:39.767Z,11.53
2023-04-12T10:38:39.707Z,11.53
2023-04-12T10:39:39.737Z,11.51
2023-04-12T10:40:39.695Z,11.49
2023-04-12T10:41:39.716Z,11.48
2023-04-12T10:42:39.695Z,11.48
2023-04-12T10:43:39.696Z,11.46
2023-04-12T10:44:39.663Z,11.46
2023-04-12T10:45:39.674Z,11.44
2023-04-12T10:46:40.127Z,11.42
2023-04-12T10:47:39.699Z,11.39
2023-04-12T10:48:39.630Z,11.35
2023-04-12T10:49:39.639Z,11.27
2023-04-12T10:50:39.628Z,11.21
2023-04-12T10:51:39.591Z,11.13
2023-04-12T10:52:39.583Z,11.01
2023-04-12T10:53:39.558Z,10.90
2023-04-12T10:54:39.668Z,10.83
2023-04-12T10:55:39.490Z,10.72
2023-04-12T10:56:39.570Z,10.68
2023-04-12T10:57:39.578Z,10.65
2023-04-12T10:58:39.490Z,10.63
2023-04-12T10:59:47.270Z,10.60
2023-04-12T11:00:40.537Z,10.55
2023-04-12T11:01:39.911Z,10.57
2023-04-12T11:02:39.635Z,10.58
2023-04-12T11:03:39.586Z,10.58
2023-04-12T11:04:40.937Z,10.62
2023-04-12T11:05:39.553Z,10.62
2023-04-12T11:06:39.638Z,10.65
2023-04-12T11:07:39.406Z,10.70
2023-04-12T11:08:39.328Z,10.75
2023-04-12T11:09:39.375Z,10.83
2023-04-12T11:10:39.345Z,10.88
2023-04-12T11:11:39.337Z,10.90
2023-04-12T11:12:39.344Z,10.95
2023-04-12T11:13:39.337Z,11.08
2023-04-12T11:14:39.301Z,11.20
2023-04-12T11:15:39.288Z,11.27
2023-04-12T11:16:39.273Z,11.33
2023-04-12T11:17:39.317Z,11.38
2023-04-12T11:18:39.351Z,11.35
2023-04-12T11:19:39.226Z,11.28
2023-04-12T11:20:39.189Z,11.31
2023-04-12T11:21:39.190Z,11.42
2023-04-12T11:22:39.168Z,11.54
2023-04-12T11:23:39.174Z,11.60
2023-04-12T11:24:39.126Z,11.66
2023-04-12T11:25:39.183Z,11.66
2023-04-12T11:26:39.115Z,11.57
2023-04-12T11:27:39.102Z,11.53
2023-04-12T11:28:39.095Z,11.56
2023-04-12T11:29:39.055Z,11.70
2023-04-12T11:30:39.063Z,11.74
2023-04-12T11:31:39.093Z,11.74
2023-04-12T11:32:39.089Z,11.72
2023-04-12T11:33:39.037Z,11.77
2023-04-12T11:34:39.030Z,11.77
2023-04-12T11:35:39.008Z,11.74
2023-04-12T11:36:38.981Z,11.70
2023-04-12T11:37:38.970Z,11.70
2023-04-12T11:38:38.942Z,11.70
2023-04-12T11:39:38.916Z,11.75
2023-04-12T11:40:38.927Z,11.75
2023-04-12T11:41:38.936Z,11.82
2023-04-12T11:42:39.000Z,11.88
2023-04-12T11:43:39.093Z,11.88
2023-04-12T11:44:54.532Z,11.94
2023-04-12T11:45:39.850Z,11.97
2023-04-12T11:46:38.846Z,11.94
2023-04-12T11:47:38.820Z,11.88
2023-04-12T11:48:39.095Z,11.82
2023-04-12T11:49:38.805Z,11.77
2023-04-12T11:50:38.806Z,11.79
2023-04-12T11:51:38.870Z,11.78
2023-04-12T11:52:38.805Z,11.81
2023-04-12T11:53:38.751Z,11.81
2023-04-12T11:54:38.768Z,11.81
2023-04-12T11:55:38.753Z,11.84
2023-04-12T11:56:38.737Z,11.77
2023-04-12T11:57:38.732Z,11.75
2023-04-12T11:58:38.720Z,11.81
2023-04-12T11:59:38.680Z,11.85
2023-04-12T12:00:38.670Z,11.88
2023-04-12T12:01:38.728Z,11.94
2023-04-12T12:02:46.513Z,11.98
2023-04-12T12:03:39.742Z,12.03
2023-04-12T12:04:38.842Z,12.05
2023-04-12T12:05:39.150Z,12.08
2023-04-12T12:06:38.775Z,12.11
2023-04-12T12:07:38.572Z,12.11
2023-04-12T12:08:38.544Z,12.11
2023-04-12T12:09:38.582Z,12.12
2023-04-12T12:10:51.939Z,12.08
2023-04-12T12:11:39.525Z,12.07
2023-04-12T12:12:38.486Z,12.08
2023-04-12T12:13:38.904Z,12.04
2023-04-12T12:14:38.460Z,11.96
2023-04-12T12:15:38.464Z,11.98
2023-04-12T12:16:38.475Z,12.04
2023-04-12T12:17:38.454Z,12.07
2023-04-12T12:18:38.541Z,12.13
2023-04-12T12:19:38.401Z,12.19
2023-04-12T12:20:38.382Z,12.26
2023-04-12T12:21:38.377Z,12.31
2023-04-12T12:22:38.363Z,12.31
2023-04-12T12:23:38.351Z,12.34
2023-04-12T12:24:43.617Z,12.41
2023-04-12T12:25:38.330Z,12.51
2023-04-12T12:26:38.354Z,12.51
2023-04-12T12:27:38.352Z,12.43
2023-04-12T12:28:38.332Z,12.38
2023-04-12T12:29:38.266Z,12.46
2023-04-12T12:30:38.246Z,12.43
2023-04-12T12:31:38.608Z,12.43
2023-04-12T12:32:38.278Z,12.55
2023-04-12T12:33:45.857Z,12.61
2023-04-12T12:34:39.190Z,12.59
2023-04-12T12:35:38.236Z,12.62
2023-04-12T12:36:38.175Z,12.69
2023-04-12T12:37:38.139Z,12.74
2023-04-12T12:38:38.153Z,12.80
2023-04-12T12:39:38.120Z,12.87
2023-04-12T12:40:38.120Z,12.92
2023-04-12T12:41:38.156Z,12.94
2023-04-12T12:42:38.109Z,12.98
2023-04-12T12:43:38.065Z,12.95
2023-04-12T12:44:38.098Z,12.95
2023-04-12T12:45:38.085Z,12.89
2023-04-12T12:47:38.114Z,12.99
2023-04-12T12:48:38.084Z,13.09
2023-04-12T12:49:38.140Z,13.14
2023-04-12T12:50:38.031Z,13.14
2023-04-12T12:51:38.019Z,13.21
2023-04-12T12:52:38.004Z,13.16
2023-04-12T12:53:38.044Z,13.13
2023-04-12T12:54:41.259Z,13.12
2023-04-12T12:55:45.510Z,13.13
2023-04-12T12:56:37.910Z,13.06
2023-04-12T12:57:55.208Z,12.94
2023-04-12T12:58:40.904Z,12.89
2023-04-12T12:59:37.885Z,12.91
2023-04-12T13:00:37.847Z,12.84
2023-04-12T13:01:37.914Z,12.79
2023-04-12T13:02:38.040Z,12.84
2023-04-12T13:03:37.918Z,12.73
2023-04-12T13:04:38.108Z,12.76
2023-04-12T13:05:37.796Z,12.79
2023-04-12T13:06:37.811Z,12.84
2023-04-12T13:07:37.788Z,12.87
2023-04-12T13:08:37.773Z,12.94
2023-04-12T13:09:37.720Z,12.95
2023-04-12T13:10:37.769Z,13.01